sensor_id;sensor_type;location;lat;lon;timestamp;temperature;humidity
5960;DHT22;3006;50.956;7.002;2023-06-14T00:00:16;23.20;64.80
5960;DHT22;3006;50.956;7.002;2023-06-14T00:02:45;23.20;64.70
5960;DHT22;3006;50.956;7.002;2023-06-14T00:05:13;23.20;64.80
5960;DHT22;3006;50.956;7.002;2023-06-14T00:07:42;23.20;65.10
5960;DHT22;3006;50.956;7.002;2023-06-14T00:10:11;23.20;64.50
5960;DHT22;3006;50.956;7.002;2023-06-14T00:12:40;23.10;65.00
5960;DHT22;3006;50.956;7.002;2023-06-14T00:15:09;23.10;64.80
5960;DHT22;3006;50.956;7.002;2023-06-14T00:17:38;23.10;64.60
5960;DHT22;3006;50.956;7.002;2023-06-14T00:20:08;23.10;64.60
5960;DHT22;3006;50.956;7.002;2023-06-14T00:22:36;23.10;64.50
5960;DHT22;3006;50.956;7.002;2023-06-14T00:25:06;23.10;64.60
5960;DHT22;3006;50.956;7.002;2023-06-14T00:27:55;23.10;65.10
5960;DHT22;3006;50.956;7.002;2023-06-14T00:30:23;23.10;65.60
5960;DHT22;3006;50.956;7.002;2023-06-14T00:32:53;23.10;65.50
5960;DHT22;3006;50.956;7.002;2023-06-14T00:35:21;23.10;65.60
5960;DHT22;3006;50.956;7.002;2023-06-14T00:37:49;22.90;65.80
5960;DHT22;3006;50.956;7.002;2023-06-14T00:40:18;22.90;66.30
5960;DHT22;3006;50.956;7.002;2023-06-14T00:42:46;22.80;66.70
5960;DHT22;3006;50.956;7.002;2023-06-14T00:45:14;22.70;67.00
5960;DHT22;3006;50.956;7.002;2023-06-14T00:47:43;22.60;67.30
5960;DHT22;3006;50.956;7.002;2023-06-14T00:50:13;22.50;67.40
5960;DHT22;3006;50.956;7.002;2023-06-14T00:52:42;22.50;67.50
5960;DHT22;3006;50.956;7.002;2023-06-14T00:55:10;22.40;67.60
5960;DHT22;3006;50.956;7.002;2023-06-14T00:57:38;22.40;67.50
5960;DHT22;3006;50.956;7.002;2023-06-14T01:00:07;22.40;67.70
5960;DHT22;3006;50.956;7.002;2023-06-14T01:02:36;22.40;67.80
5960;DHT22;3006;50.956;7.002;2023-06-14T01:05:09;22.40;67.70
5960;DHT22;3006;50.956;7.002;2023-06-14T01:07:55;22.30;67.70
5960;DHT22;3006;50.956;7.002;2023-06-14T01:10:50;22.20;67.90
5960;DHT22;3006;50.956;7.002;2023-06-14T01:13:23;22.20;68.10
5960;DHT22;3006;50.956;7.002;2023-06-14T01:15:52;22.20;68.60
5960;DHT22;3006;50.956;7.002;2023-06-14T01:18:22;22.10;67.70
5960;DHT22;3006;50.956;7.002;2023-06-14T01:20:53;22.10;67.90
5960;DHT22;3006;50.956;7.002;2023-06-14T01:23:25;22.10;68.40
5960;DHT22;3006;50.956;7.002;2023-06-14T01:25:59;22.00;68.40
5960;DHT22;3006;50.956;7.002;2023-06-14T01:28:31;22.00;68.70
5960;DHT22;3006;50.956;7.002;2023-06-14T01:31:02;21.90;68.60
5960;DHT22;3006;50.956;7.002;2023-06-14T01:33:33;21.90;68.70
5960;DHT22;3006;50.956;7.002;2023-06-14T01:36:05;21.90;69.40
5960;DHT22;3006;50.956;7.002;2023-06-14T01:38:36;21.90;68.40
5960;DHT22;3006;50.956;7.002;2023-06-14T01:41:06;21.90;68.70
5960;DHT22;3006;50.956;7.002;2023-06-14T01:43:34;21.80;69.10
5960;DHT22;3006;50.956;7.002;2023-06-14T01:46:05;21.70;69.40
5960;DHT22;3006;50.956;7.002;2023-06-14T01:48:34;21.80;70.00
5960;DHT22;3006;50.956;7.002;2023-06-14T01:51:03;21.70;70.30
5960;DHT22;3006;50.956;7.002;2023-06-14T01:53:31;21.70;70.50
5960;DHT22;3006;50.956;7.002;2023-06-14T01:56:00;21.70;70.80
5960;DHT22;3006;50.956;7.002;2023-06-14T01:58:30;21.60;70.80
5960;DHT22;3006;50.956;7.002;2023-06-14T02:00:59;21.60;71.10
5960;DHT22;3006;50.956;7.002;2023-06-14T02:03:28;21.60;71.20
5960;DHT22;3006;50.956;7.002;2023-06-14T02:05:56;21.60;71.40
5960;DHT22;3006;50.956;7.002;2023-06-14T02:08:25;21.60;71.50
5960;DHT22;3006;50.956;7.002;2023-06-14T02:10:53;21.60;71.60
5960;DHT22;3006;50.956;7.002;2023-06-14T02:13:22;21.60;71.80
5960;DHT22;3006;50.956;7.002;2023-06-14T02:15:50;21.60;71.70
5960;DHT22;3006;50.956;7.002;2023-06-14T02:18:21;21.50;72.40
5960;DHT22;3006;50.956;7.002;2023-06-14T02:20:49;21.40;71.70
5960;DHT22;3006;50.956;7.002;2023-06-14T02:23:17;21.40;71.90
5960;DHT22;3006;50.956;7.002;2023-06-14T02:25:46;21.50;71.80
5960;DHT22;3006;50.956;7.002;2023-06-14T02:28:14;21.50;71.80
5960;DHT22;3006;50.956;7.002;2023-06-14T02:30:43;21.50;71.40
5960;DHT22;3006;50.956;7.002;2023-06-14T02:33:11;21.50;71.20
5960;DHT22;3006;50.956;7.002;2023-06-14T02:35:40;21.40;71.00
5960;DHT22;3006;50.956;7.002;2023-06-14T02:38:08;21.40;71.00
5960;DHT22;3006;50.956;7.002;2023-06-14T02:40:36;21.20;71.80
5960;DHT22;3006;50.956;7.002;2023-06-14T02:43:04;21.10;71.70
5960;DHT22;3006;50.956;7.002;2023-06-14T02:45:32;21.10;71.90
5960;DHT22;3006;50.956;7.002;2023-06-14T02:48:02;21.10;72.00
5960;DHT22;3006;50.956;7.002;2023-06-14T02:50:30;21.10;71.80
5960;DHT22;3006;50.956;7.002;2023-06-14T02:52:59;21.10;72.10
5960;DHT22;3006;50.956;7.002;2023-06-14T02:55:27;21.20;71.90
5960;DHT22;3006;50.956;7.002;2023-06-14T02:57:55;21.20;71.80
5960;DHT22;3006;50.956;7.002;2023-06-14T03:00:25;21.20;72.00
5960;DHT22;3006;50.956;7.002;2023-06-14T03:02:53;21.20;72.20
5960;DHT22;3006;50.956;7.002;2023-06-14T03:05:24;21.10;72.10
5960;DHT22;3006;50.956;7.002;2023-06-14T03:07:54;21.10;72.30
5960;DHT22;3006;50.956;7.002;2023-06-14T03:10:24;21.10;72.50
5960;DHT22;3006;50.956;7.002;2023-06-14T03:12:56;21.10;72.70
5960;DHT22;3006;50.956;7.002;2023-06-14T03:15:24;21.10;72.80
5960;DHT22;3006;50.956;7.002;2023-06-14T03:17:52;21.00;72.90
5960;DHT22;3006;50.956;7.002;2023-06-14T03:20:21;21.00;72.80
5960;DHT22;3006;50.956;7.002;2023-06-14T03:22:54;21.00;72.80
5960;DHT22;3006;50.956;7.002;2023-06-14T03:25:22;21.00;73.10
5960;DHT22;3006;50.956;7.002;2023-06-14T03:27:51;20.90;73.10
5960;DHT22;3006;50.956;7.002;2023-06-14T03:30:19;20.90;73.20
5960;DHT22;3006;50.956;7.002;2023-06-14T03:32:49;20.80;73.70
5960;DHT22;3006;50.956;7.002;2023-06-14T03:35:19;20.80;73.90
5960;DHT22;3006;50.956;7.002;2023-06-14T03:37:48;20.80;74.10
5960;DHT22;3006;50.956;7.002;2023-06-14T03:40:18;20.80;74.10
5960;DHT22;3006;50.956;7.002;2023-06-14T03:42:52;20.70;74.30
5960;DHT22;3006;50.956;7.002;2023-06-14T03:45:20;20.80;74.40
5960;DHT22;3006;50.956;7.002;2023-06-14T03:47:48;20.80;74.50
5960;DHT22;3006;50.956;7.002;2023-06-14T03:50:18;20.80;73.80
5960;DHT22;3006;50.956;7.002;2023-06-14T03:52:47;20.80;74.00
5960;DHT22;3006;50.956;7.002;2023-06-14T03:55:20;20.80;73.90
5960;DHT22;3006;50.956;7.002;2023-06-14T03:58:09;20.80;74.10
5960;DHT22;3006;50.956;7.002;2023-06-14T04:00:37;20.80;75.00
5960;DHT22;3006;50.956;7.002;2023-06-14T04:03:06;20.80;74.60
5960;DHT22;3006;50.956;7.002;2023-06-14T04:05:35;20.90;74.90
5960;DHT22;3006;50.956;7.002;2023-06-14T04:08:05;20.80;75.10
5960;DHT22;3006;50.956;7.002;2023-06-14T04:10:37;20.80;75.20
5960;DHT22;3006;50.956;7.002;2023-06-14T04:13:05;20.90;75.40
5960;DHT22;3006;50.956;7.002;2023-06-14T04:15:34;20.90;75.30
5960;DHT22;3006;50.956;7.002;2023-06-14T04:18:04;20.90;75.00
5960;DHT22;3006;50.956;7.002;2023-06-14T04:20:32;20.90;74.60
5960;DHT22;3006;50.956;7.002;2023-06-14T04:23:11;21.00;74.60
5960;DHT22;3006;50.956;7.002;2023-06-14T04:25:42;21.00;74.50
5960;DHT22;3006;50.956;7.002;2023-06-14T04:28:12;21.10;74.30
5960;DHT22;3006;50.956;7.002;2023-06-14T04:30:42;21.20;74.00
5960;DHT22;3006;50.956;7.002;2023-06-14T04:33:11;21.20;73.50
5960;DHT22;3006;50.956;7.002;2023-06-14T04:35:40;21.20;73.80
5960;DHT22;3006;50.956;7.002;2023-06-14T04:38:09;21.10;73.90
5960;DHT22;3006;50.956;7.002;2023-06-14T04:40:38;21.10;74.10
5960;DHT22;3006;50.956;7.002;2023-06-14T04:43:15;21.20;73.50
5960;DHT22;3006;50.956;7.002;2023-06-14T04:45:45;21.30;73.00
5960;DHT22;3006;50.956;7.002;2023-06-14T04:48:14;21.40;72.50
5960;DHT22;3006;50.956;7.002;2023-06-14T04:50:48;21.40;72.50
5960;DHT22;3006;50.956;7.002;2023-06-14T04:53:20;21.40;71.10
5960;DHT22;3006;50.956;7.002;2023-06-14T04:55:52;21.70;71.20
5960;DHT22;3006;50.956;7.002;2023-06-14T04:58:23;22.00;69.80
5960;DHT22;3006;50.956;7.002;2023-06-14T05:00:51;22.20;69.10
5960;DHT22;3006;50.956;7.002;2023-06-14T05:03:20;22.40;68.50
5960;DHT22;3006;50.956;7.002;2023-06-14T05:05:48;22.50;68.90
5960;DHT22;3006;50.956;7.002;2023-06-14T05:08:17;22.60;69.70
5960;DHT22;3006;50.956;7.002;2023-06-14T05:10:46;22.70;70.00
5960;DHT22;3006;50.956;7.002;2023-06-14T05:13:14;22.70;69.30
5960;DHT22;3006;50.956;7.002;2023-06-14T05:15:43;22.80;68.90
5960;DHT22;3006;50.956;7.002;2023-06-14T05:18:12;22.80;67.80
5960;DHT22;3006;50.956;7.002;2023-06-14T05:20:41;22.80;67.00
5960;DHT22;3006;50.956;7.002;2023-06-14T05:23:09;22.90;66.90
5960;DHT22;3006;50.956;7.002;2023-06-14T05:25:43;22.90;66.60
5960;DHT22;3006;50.956;7.002;2023-06-14T05:28:47;22.90;66.30
5960;DHT22;3006;50.956;7.002;2023-06-14T05:31:16;22.80;65.60
5960;DHT22;3006;50.956;7.002;2023-06-14T05:33:44;22.80;65.60
5960;DHT22;3006;50.956;7.002;2023-06-14T05:36:12;22.80;65.70
5960;DHT22;3006;50.956;7.002;2023-06-14T05:38:40;22.80;66.20
5960;DHT22;3006;50.956;7.002;2023-06-14T05:41:08;22.80;66.30
5960;DHT22;3006;50.956;7.002;2023-06-14T05:43:36;22.80;65.50
5960;DHT22;3006;50.956;7.002;2023-06-14T05:46:04;22.90;65.40
5960;DHT22;3006;50.956;7.002;2023-06-14T05:48:34;22.90;65.20
5960;DHT22;3006;50.956;7.002;2023-06-14T05:51:02;22.90;65.50
5960;DHT22;3006;50.956;7.002;2023-06-14T05:53:30;22.90;65.50
5960;DHT22;3006;50.956;7.002;2023-06-14T05:55:58;23.00;65.40
5960;DHT22;3006;50.956;7.002;2023-06-14T05:58:26;23.00;65.70
5960;DHT22;3006;50.956;7.002;2023-06-14T06:00:54;23.00;65.90
5960;DHT22;3006;50.956;7.002;2023-06-14T06:03:23;23.00;65.60
5960;DHT22;3006;50.956;7.002;2023-06-14T06:05:52;23.00;65.60
5960;DHT22;3006;50.956;7.002;2023-06-14T06:08:21;23.00;65.50
5960;DHT22;3006;50.956;7.002;2023-06-14T06:10:49;23.00;65.60
5960;DHT22;3006;50.956;7.002;2023-06-14T06:13:17;23.10;65.60
5960;DHT22;3006;50.956;7.002;2023-06-14T06:15:45;23.10;65.60
5960;DHT22;3006;50.956;7.002;2023-06-14T06:18:13;23.10;65.50
5960;DHT22;3006;50.956;7.002;2023-06-14T06:20:42;23.10;65.00
5960;DHT22;3006;50.956;7.002;2023-06-14T06:23:12;23.10;65.10
5960;DHT22;3006;50.956;7.002;2023-06-14T06:25:40;23.10;65.10
5960;DHT22;3006;50.956;7.002;2023-06-14T06:28:08;23.10;66.30
5960;DHT22;3006;50.956;7.002;2023-06-14T06:30:36;23.20;66.70
5960;DHT22;3006;50.956;7.002;2023-06-14T06:33:04;23.10;65.70
5960;DHT22;3006;50.956;7.002;2023-06-14T06:35:33;22.90;65.70
5960;DHT22;3006;50.956;7.002;2023-06-14T06:38:01;22.80;66.30
5960;DHT22;3006;50.956;7.002;2023-06-14T06:40:30;22.70;66.10
5960;DHT22;3006;50.956;7.002;2023-06-14T06:42:58;22.60;66.10
5960;DHT22;3006;50.956;7.002;2023-06-14T06:45:27;22.40;66.70
5960;DHT22;3006;50.956;7.002;2023-06-14T06:47:55;22.40;66.20
5960;DHT22;3006;50.956;7.002;2023-06-14T06:50:23;22.30;66.70
5960;DHT22;3006;50.956;7.002;2023-06-14T06:52:52;22.40;66.70
5960;DHT22;3006;50.956;7.002;2023-06-14T06:55:21;22.40;66.90
5960;DHT22;3006;50.956;7.002;2023-06-14T06:57:50;22.40;66.80
5960;DHT22;3006;50.956;7.002;2023-06-14T07:00:21;22.40;66.70
5960;DHT22;3006;50.956;7.002;2023-06-14T07:02:49;22.40;66.20
5960;DHT22;3006;50.956;7.002;2023-06-14T07:05:18;22.40;66.20
5960;DHT22;3006;50.956;7.002;2023-06-14T07:07:46;22.40;66.90
5960;DHT22;3006;50.956;7.002;2023-06-14T07:10:14;22.40;66.90
5960;DHT22;3006;50.956;7.002;2023-06-14T07:12:42;22.40;66.90
5960;DHT22;3006;50.956;7.002;2023-06-14T07:15:12;22.50;66.50
5960;DHT22;3006;50.956;7.002;2023-06-14T07:17:40;22.50;66.80
5960;DHT22;3006;50.956;7.002;2023-06-14T07:20:09;22.50;66.50
5960;DHT22;3006;50.956;7.002;2023-06-14T07:22:41;22.60;66.30
5960;DHT22;3006;50.956;7.002;2023-06-14T07:25:10;22.60;65.40
5960;DHT22;3006;50.956;7.002;2023-06-14T07:27:41;22.60;65.70
5960;DHT22;3006;50.956;7.002;2023-06-14T07:30:12;22.60;65.50
5960;DHT22;3006;50.956;7.002;2023-06-14T07:32:40;22.60;65.40
5960;DHT22;3006;50.956;7.002;2023-06-14T07:35:08;22.70;65.30
5960;DHT22;3006;50.956;7.002;2023-06-14T07:37:36;22.80;65.00
5960;DHT22;3006;50.956;7.002;2023-06-14T07:40:06;22.70;65.10
5960;DHT22;3006;50.956;7.002;2023-06-14T07:42:35;22.80;64.70
5960;DHT22;3006;50.956;7.002;2023-06-14T07:45:04;22.80;63.20
5960;DHT22;3006;50.956;7.002;2023-06-14T07:47:34;22.70;62.70
5960;DHT22;3006;50.956;7.002;2023-06-14T07:50:02;22.80;62.60
5960;DHT22;3006;50.956;7.002;2023-06-14T07:52:32;22.80;61.40
5960;DHT22;3006;50.956;7.002;2023-06-14T07:55:00;22.90;62.00
5960;DHT22;3006;50.956;7.002;2023-06-14T07:57:28;22.90;61.90
5960;DHT22;3006;50.956;7.002;2023-06-14T07:59:56;23.00;62.00
5960;DHT22;3006;50.956;7.002;2023-06-14T08:02:25;23.10;61.00
5960;DHT22;3006;50.956;7.002;2023-06-14T08:04:54;23.10;61.20
5960;DHT22;3006;50.956;7.002;2023-06-14T08:07:22;23.10;60.70
5960;DHT22;3006;50.956;7.002;2023-06-14T08:09:51;23.10;60.60
5960;DHT22;3006;50.956;7.002;2023-06-14T08:12:19;23.10;59.20
5960;DHT22;3006;50.956;7.002;2023-06-14T08:14:47;23.10;59.10
5960;DHT22;3006;50.956;7.002;2023-06-14T08:17:27;23.10;58.70
5960;DHT22;3006;50.956;7.002;2023-06-14T08:19:56;23.10;57.20
5960;DHT22;3006;50.956;7.002;2023-06-14T08:22:25;23.20;57.10
5960;DHT22;3006;50.956;7.002;2023-06-14T08:24:54;23.20;57.70
5960;DHT22;3006;50.956;7.002;2023-06-14T08:27:22;23.20;56.60
5960;DHT22;3006;50.956;7.002;2023-06-14T08:29:51;23.10;56.90
5960;DHT22;3006;50.956;7.002;2023-06-14T08:32:19;23.10;57.90
5960;DHT22;3006;50.956;7.002;2023-06-14T08:34:47;23.20;57.60
5960;DHT22;3006;50.956;7.002;2023-06-14T08:37:31;23.10;57.50
5960;DHT22;3006;50.956;7.002;2023-06-14T08:40:00;23.20;58.80
5960;DHT22;3006;50.956;7.002;2023-06-14T08:42:33;23.20;57.90
5960;DHT22;3006;50.956;7.002;2023-06-14T08:45:02;23.30;58.20
5960;DHT22;3006;50.956;7.002;2023-06-14T08:47:31;23.30;58.00
5960;DHT22;3006;50.956;7.002;2023-06-14T08:50:08;23.30;57.80
5960;DHT22;3006;50.956;7.002;2023-06-14T08:52:57;23.40;57.40
5960;DHT22;3006;50.956;7.002;2023-06-14T08:55:28;23.30;57.70
5960;DHT22;3006;50.956;7.002;2023-06-14T08:58:02;23.40;58.30
5960;DHT22;3006;50.956;7.002;2023-06-14T09:00:30;23.40;57.80
5960;DHT22;3006;50.956;7.002;2023-06-14T09:03:00;23.40;57.80
5960;DHT22;3006;50.956;7.002;2023-06-14T09:05:30;23.30;58.10
5960;DHT22;3006;50.956;7.002;2023-06-14T09:07:59;23.50;57.60
5960;DHT22;3006;50.956;7.002;2023-06-14T09:10:32;23.40;57.70
5960;DHT22;3006;50.956;7.002;2023-06-14T09:13:02;23.50;57.50
5960;DHT22;3006;50.956;7.002;2023-06-14T09:15:30;23.40;57.70
5960;DHT22;3006;50.956;7.002;2023-06-14T09:18:01;23.50;58.10
5960;DHT22;3006;50.956;7.002;2023-06-14T09:20:30;23.40;57.20
5960;DHT22;3006;50.956;7.002;2023-06-14T09:23:01;23.40;57.30
5960;DHT22;3006;50.956;7.002;2023-06-14T09:25:29;23.40;57.50
5960;DHT22;3006;50.956;7.002;2023-06-14T09:28:06;23.40;58.00
5960;DHT22;3006;50.956;7.002;2023-06-14T09:30:36;23.40;58.60
5960;DHT22;3006;50.956;7.002;2023-06-14T09:33:05;23.50;58.40
5960;DHT22;3006;50.956;7.002;2023-06-14T09:35:33;23.40;58.80
5960;DHT22;3006;50.956;7.002;2023-06-14T09:38:03;23.50;58.80
5960;DHT22;3006;50.956;7.002;2023-06-14T09:40:34;23.60;58.50
5960;DHT22;3006;50.956;7.002;2023-06-14T09:43:06;23.60;58.40
5960;DHT22;3006;50.956;7.002;2023-06-14T09:45:35;23.70;58.50
5960;DHT22;3006;50.956;7.002;2023-06-14T09:48:06;23.70;58.50
5960;DHT22;3006;50.956;7.002;2023-06-14T09:50:35;23.60;57.90
5960;DHT22;3006;50.956;7.002;2023-06-14T09:53:07;23.60;58.40
5960;DHT22;3006;50.956;7.002;2023-06-14T09:55:36;23.70;58.50
5960;DHT22;3006;50.956;7.002;2023-06-14T09:58:06;23.80;58.70
5960;DHT22;3006;50.956;7.002;2023-06-14T10:00:36;23.70;58.30
5960;DHT22;3006;50.956;7.002;2023-06-14T10:03:09;23.70;58.50
5960;DHT22;3006;50.956;7.002;2023-06-14T10:05:41;23.60;58.40
5960;DHT22;3006;50.956;7.002;2023-06-14T10:08:14;23.70;59.00
5960;DHT22;3006;50.956;7.002;2023-06-14T10:10:44;23.70;59.00
5960;DHT22;3006;50.956;7.002;2023-06-14T10:13:13;23.70;59.10
5960;DHT22;3006;50.956;7.002;2023-06-14T10:15:48;23.60;59.70
5960;DHT22;3006;50.956;7.002;2023-06-14T10:18:24;23.70;59.60
5960;DHT22;3006;50.956;7.002;2023-06-14T10:21:03;23.80;59.60
5960;DHT22;3006;50.956;7.002;2023-06-14T10:23:40;23.80;59.30
5960;DHT22;3006;50.956;7.002;2023-06-14T10:26:18;24.00;58.40
5960;DHT22;3006;50.956;7.002;2023-06-14T10:28:57;24.00;59.20
5960;DHT22;3006;50.956;7.002;2023-06-14T10:31:41;24.10;58.90
5960;DHT22;3006;50.956;7.002;2023-06-14T10:34:10;24.10;60.50
5960;DHT22;3006;50.956;7.002;2023-06-14T10:36:42;24.10;60.00
5960;DHT22;3006;50.956;7.002;2023-06-14T10:39:15;24.10;58.70
5960;DHT22;3006;50.956;7.002;2023-06-14T10:41:51;24.20;59.60
5960;DHT22;3006;50.956;7.002;2023-06-14T10:44:40;24.30;58.90
5960;DHT22;3006;50.956;7.002;2023-06-14T10:47:10;24.40;58.80
5960;DHT22;3006;50.956;7.002;2023-06-14T10:49:41;24.40;58.40
5960;DHT22;3006;50.956;7.002;2023-06-14T10:52:13;24.40;59.10
5960;DHT22;3006;50.956;7.002;2023-06-14T10:55:01;24.30;59.20
5960;DHT22;3006;50.956;7.002;2023-06-14T10:57:31;24.30;59.40
5960;DHT22;3006;50.956;7.002;2023-06-14T11:00:15;24.30;60.60
5960;DHT22;3006;50.956;7.002;2023-06-14T11:05:45;24.20;60.60
5960;DHT22;3006;50.956;7.002;2023-06-14T11:08:50;24.20;60.80
5960;DHT22;3006;50.956;7.002;2023-06-14T11:11:30;24.30;60.90
5960;DHT22;3006;50.956;7.002;2023-06-14T11:14:00;24.40;61.00
5960;DHT22;3006;50.956;7.002;2023-06-14T11:16:28;24.50;60.50
5960;DHT22;3006;50.956;7.002;2023-06-14T11:19:00;24.70;60.70
5960;DHT22;3006;50.956;7.002;2023-06-14T11:21:31;24.80;61.10
5960;DHT22;3006;50.956;7.002;2023-06-14T11:24:00;24.90;61.60
5960;DHT22;3006;50.956;7.002;2023-06-14T11:26:31;24.80;61.80
5960;DHT22;3006;50.956;7.002;2023-06-14T11:29:01;24.90;61.50
5960;DHT22;3006;50.956;7.002;2023-06-14T11:31:29;24.80;61.20
5960;DHT22;3006;50.956;7.002;2023-06-14T11:33:58;24.70;61.70
5960;DHT22;3006;50.956;7.002;2023-06-14T11:36:27;24.70;62.50
5960;DHT22;3006;50.956;7.002;2023-06-14T11:38:58;24.80;62.60
5960;DHT22;3006;50.956;7.002;2023-06-14T11:41:35;24.90;62.10
5960;DHT22;3006;50.956;7.002;2023-06-14T11:44:04;25.00;62.60
5960;DHT22;3006;50.956;7.002;2023-06-14T11:46:32;25.30;61.30
5960;DHT22;3006;50.956;7.002;2023-06-14T11:49:01;25.30;61.10
5960;DHT22;3006;50.956;7.002;2023-06-14T11:51:32;25.30;61.40
5960;DHT22;3006;50.956;7.002;2023-06-14T11:54:00;25.30;61.10
5960;DHT22;3006;50.956;7.002;2023-06-14T11:56:29;25.50;60.90
5960;DHT22;3006;50.956;7.002;2023-06-14T11:59:01;25.60;59.70
5960;DHT22;3006;50.956;7.002;2023-06-14T12:01:30;25.70;60.20
5960;DHT22;3006;50.956;7.002;2023-06-14T12:03:59;25.70;58.70
5960;DHT22;3006;50.956;7.002;2023-06-14T12:06:29;25.80;58.60
5960;DHT22;3006;50.956;7.002;2023-06-14T12:09:02;25.80;58.70
5960;DHT22;3006;50.956;7.002;2023-06-14T12:11:34;25.80;59.10
5960;DHT22;3006;50.956;7.002;2023-06-14T12:14:05;25.90;58.30
5960;DHT22;3006;50.956;7.002;2023-06-14T12:16:34;25.90;58.20
5960;DHT22;3006;50.956;7.002;2023-06-14T12:19:12;26.10;57.80
5960;DHT22;3006;50.956;7.002;2023-06-14T12:21:41;26.20;57.30
5960;DHT22;3006;50.956;7.002;2023-06-14T12:24:11;26.40;57.10
5960;DHT22;3006;50.956;7.002;2023-06-14T12:26:41;26.40;57.60
5960;DHT22;3006;50.956;7.002;2023-06-14T12:29:12;26.60;57.50
5960;DHT22;3006;50.956;7.002;2023-06-14T12:31:41;26.70;56.70
5960;DHT22;3006;50.956;7.002;2023-06-14T12:34:09;26.70;56.40
5960;DHT22;3006;50.956;7.002;2023-06-14T12:36:38;26.70;57.30
5960;DHT22;3006;50.956;7.002;2023-06-14T12:39:12;26.70;57.20
5960;DHT22;3006;50.956;7.002;2023-06-14T12:41:40;26.70;57.30
5960;DHT22;3006;50.956;7.002;2023-06-14T12:44:12;26.50;57.00
5960;DHT22;3006;50.956;7.002;2023-06-14T12:46:40;26.40;57.50
5960;DHT22;3006;50.956;7.002;2023-06-14T12:49:10;26.20;57.80
5960;DHT22;3006;50.956;7.002;2023-06-14T12:51:39;26.00;57.70
5960;DHT22;3006;50.956;7.002;2023-06-14T12:54:07;26.10;58.40
5960;DHT22;3006;50.956;7.002;2023-06-14T12:56:36;26.20;58.50
5960;DHT22;3006;50.956;7.002;2023-06-14T12:59:04;26.30;58.50
5960;DHT22;3006;50.956;7.002;2023-06-14T13:01:34;26.50;58.40
5960;DHT22;3006;50.956;7.002;2023-06-14T13:04:02;26.60;58.60
5960;DHT22;3006;50.956;7.002;2023-06-14T13:06:31;26.70;58.40
5960;DHT22;3006;50.956;7.002;2023-06-14T13:09:00;27.00;57.90
5960;DHT22;3006;50.956;7.002;2023-06-14T13:11:28;27.30;57.80
5960;DHT22;3006;50.956;7.002;2023-06-14T13:13:57;27.40;57.10
5960;DHT22;3006;50.956;7.002;2023-06-14T13:16:26;27.40;57.30
5960;DHT22;3006;50.956;7.002;2023-06-14T13:18:56;27.60;57.60
5960;DHT22;3006;50.956;7.002;2023-06-14T13:21:24;27.80;57.70
5960;DHT22;3006;50.956;7.002;2023-06-14T13:23:52;27.80;56.10
5960;DHT22;3006;50.956;7.002;2023-06-14T13:26:20;27.90;56.70
5960;DHT22;3006;50.956;7.002;2023-06-14T13:28:48;28.00;56.30
5960;DHT22;3006;50.956;7.002;2023-06-14T13:31:19;28.00;56.10
5960;DHT22;3006;50.956;7.002;2023-06-14T13:33:48;28.10;56.20
5960;DHT22;3006;50.956;7.002;2023-06-14T13:36:17;28.20;56.40
5960;DHT22;3006;50.956;7.002;2023-06-14T13:38:45;28.40;55.60
5960;DHT22;3006;50.956;7.002;2023-06-14T13:41:15;28.40;55.10
5960;DHT22;3006;50.956;7.002;2023-06-14T13:43:43;28.30;55.40
5960;DHT22;3006;50.956;7.002;2023-06-14T13:46:12;28.40;55.30
5960;DHT22;3006;50.956;7.002;2023-06-14T13:48:40;28.60;55.20
5960;DHT22;3006;50.956;7.002;2023-06-14T13:51:08;28.60;55.00
5960;DHT22;3006;50.956;7.002;2023-06-14T13:53:38;28.60;54.70
5960;DHT22;3006;50.956;7.002;2023-06-14T13:56:06;28.80;54.60
5960;DHT22;3006;50.956;7.002;2023-06-14T13:58:34;29.00;54.10
5960;DHT22;3006;50.956;7.002;2023-06-14T14:01:02;29.10;54.20
5960;DHT22;3006;50.956;7.002;2023-06-14T14:03:30;29.10;54.00
5960;DHT22;3006;50.956;7.002;2023-06-14T14:05:58;29.00;53.90
5960;DHT22;3006;50.956;7.002;2023-06-14T14:08:28;29.00;53.80
5960;DHT22;3006;50.956;7.002;2023-06-14T14:10:57;29.10;54.30
5960;DHT22;3006;50.956;7.002;2023-06-14T14:13:25;29.20;53.70
5960;DHT22;3006;50.956;7.002;2023-06-14T14:15:53;29.30;54.20
5960;DHT22;3006;50.956;7.002;2023-06-14T14:18:22;29.40;54.00
5960;DHT22;3006;50.956;7.002;2023-06-14T14:20:50;29.50;53.60
5960;DHT22;3006;50.956;7.002;2023-06-14T14:23:18;29.10;54.00
5960;DHT22;3006;50.956;7.002;2023-06-14T14:25:47;28.70;54.00
5960;DHT22;3006;50.956;7.002;2023-06-14T14:28:16;28.50;54.40
5960;DHT22;3006;50.956;7.002;2023-06-14T14:30:46;28.80;54.50
5960;DHT22;3006;50.956;7.002;2023-06-14T14:33:15;29.00;54.30
5960;DHT22;3006;50.956;7.002;2023-06-14T14:35:44;28.60;54.40
5960;DHT22;3006;50.956;7.002;2023-06-14T14:38:13;28.30;54.80
5960;DHT22;3006;50.956;7.002;2023-06-14T14:40:42;28.10;55.90
5960;DHT22;3006;50.956;7.002;2023-06-14T14:43:11;27.70;55.00
5960;DHT22;3006;50.956;7.002;2023-06-14T14:45:40;27.70;55.60
5960;DHT22;3006;50.956;7.002;2023-06-14T14:48:09;28.00;55.50
5960;DHT22;3006;50.956;7.002;2023-06-14T14:50:37;28.00;55.00
5960;DHT22;3006;50.956;7.002;2023-06-14T14:53:05;27.70;55.00
5960;DHT22;3006;50.956;7.002;2023-06-14T14:55:33;27.50;55.20
5960;DHT22;3006;50.956;7.002;2023-06-14T14:58:04;27.40;55.40
5960;DHT22;3006;50.956;7.002;2023-06-14T15:00:33;27.30;55.80
5960;DHT22;3006;50.956;7.002;2023-06-14T15:03:03;27.50;56.10
5960;DHT22;3006;50.956;7.002;2023-06-14T15:05:31;28.10;56.00
5960;DHT22;3006;50.956;7.002;2023-06-14T15:08:00;28.80;54.60
5960;DHT22;3006;50.956;7.002;2023-06-14T15:10:28;28.60;54.60
5960;DHT22;3006;50.956;7.002;2023-06-14T15:12:56;28.20;54.30
5960;DHT22;3006;50.956;7.002;2023-06-14T15:15:24;27.80;54.40
5960;DHT22;3006;50.956;7.002;2023-06-14T15:17:52;27.60;55.00
5960;DHT22;3006;50.956;7.002;2023-06-14T15:20:22;27.90;54.60
5960;DHT22;3006;50.956;7.002;2023-06-14T15:22:50;28.70;54.30
5960;DHT22;3006;50.956;7.002;2023-06-14T15:25:19;29.50;53.30
5960;DHT22;3006;50.956;7.002;2023-06-14T15:27:48;30.00;52.30
5960;DHT22;3006;50.956;7.002;2023-06-14T15:30:16;30.40;51.90
5960;DHT22;3006;50.956;7.002;2023-06-14T15:32:44;30.60;52.10
5960;DHT22;3006;50.956;7.002;2023-06-14T15:35:12;31.00;51.40
5960;DHT22;3006;50.956;7.002;2023-06-14T15:37:42;30.90;51.90
5960;DHT22;3006;50.956;7.002;2023-06-14T15:40:11;30.70;52.10
5960;DHT22;3006;50.956;7.002;2023-06-14T15:42:39;30.30;51.30
5960;DHT22;3006;50.956;7.002;2023-06-14T15:45:08;29.70;52.80
5960;DHT22;3006;50.956;7.002;2023-06-14T15:47:36;29.20;53.00
5960;DHT22;3006;50.956;7.002;2023-06-14T15:50:06;28.80;53.50
5960;DHT22;3006;50.956;7.002;2023-06-14T15:52:35;28.40;54.00
5960;DHT22;3006;50.956;7.002;2023-06-14T15:55:05;28.30;54.70
5960;DHT22;3006;50.956;7.002;2023-06-14T15:57:33;28.20;54.40
5960;DHT22;3006;50.956;7.002;2023-06-14T16:00:02;28.10;53.90
5960;DHT22;3006;50.956;7.002;2023-06-14T16:02:30;27.80;54.30
5960;DHT22;3006;50.956;7.002;2023-06-14T16:04:59;27.70;54.70
5960;DHT22;3006;50.956;7.002;2023-06-14T16:07:27;27.60;55.40
5960;DHT22;3006;50.956;7.002;2023-06-14T16:09:55;27.60;54.70
5960;DHT22;3006;50.956;7.002;2023-06-14T16:12:24;27.40;54.60
5960;DHT22;3006;50.956;7.002;2023-06-14T16:14:52;27.40;54.30
5960;DHT22;3006;50.956;7.002;2023-06-14T16:17:21;27.30;53.50
5960;DHT22;3006;50.956;7.002;2023-06-14T16:19:49;27.30;53.80
5960;DHT22;3006;50.956;7.002;2023-06-14T16:22:17;27.30;54.20